createdAt,value
2019-02-21T00:01:04.128Z,8.47
2019-02-21T00:03:34.977Z,7.90
2019-02-21T00:06:04.779Z,8.77
2019-02-21T00:08:34.270Z,8.20
2019-02-21T00:11:03.744Z,8.10
2019-02-21T00:13:33.053Z,9.17
2019-02-21T00:16:02.343Z,6.43
2019-02-21T00:18:32.733Z,7.03
2019-02-21T00:21:02.152Z,9.23
2019-02-21T00:23:31.437Z,6.73
2019-02-21T00:26:00.801Z,8.90
2019-02-21T00:28:32.095Z,8.20
2019-02-21T00:31:01.424Z,7.80
2019-02-21T00:33:30.733Z,6.47
2019-02-21T00:36:00.434Z,7.77
2019-02-21T00:38:29.772Z,7.37
2019-02-21T00:40:59.273Z,9.70
2019-02-21T00:43:28.822Z,10.47
2019-02-21T00:45:58.270Z,7.63
2019-02-21T00:48:27.574Z,8.67
2019-02-21T00:50:57.082Z,6.77
2019-02-21T00:53:26.605Z,10.50
2019-02-21T00:55:56.121Z,6.80
2019-02-21T00:58:25.613Z,10.17
2019-02-21T01:00:55.072Z,7.33
2019-02-21T01:03:24.731Z,9.97
2019-02-21T01:05:54.129Z,9.90
2019-02-21T01:08:23.618Z,12.23
2019-02-21T01:10:53.151Z,8.17
2019-02-21T01:13:22.749Z,9.47
2019-02-21T01:15:52.165Z,8.33
2019-02-21T01:18:21.619Z,8.93
2019-02-21T01:20:50.923Z,10.10
2019-02-21T01:23:20.220Z,10.03
2019-02-21T01:25:49.500Z,10.03
2019-02-21T01:28:18.760Z,10.80
2019-02-21T01:30:56.738Z,8.10
2019-02-21T01:33:19.068Z,6.97
2019-02-21T01:35:48.397Z,8.60
2019-02-21T01:38:19.320Z,7.00
2019-02-21T01:40:48.608Z,7.63
2019-02-21T01:43:17.941Z,8.53
2019-02-21T01:45:47.392Z,7.20
2019-02-21T01:48:16.704Z,9.60
2019-02-21T01:50:46.083Z,7.47
2019-02-21T01:53:15.503Z,9.03
2019-02-21T01:55:44.899Z,8.87
2019-02-21T01:58:14.318Z,9.17
2019-02-21T02:00:43.688Z,12.37
2019-02-21T02:03:13.343Z,8.73
2019-02-21T02:05:42.650Z,8.57
2019-02-21T02:08:12.756Z,8.20
2019-02-21T02:10:42.114Z,7.57
2019-02-21T02:13:23.738Z,9.00
2019-02-21T02:15:42.685Z,10.07
2019-02-21T02:18:11.981Z,9.20
2019-02-21T02:20:41.316Z,11.20
2019-02-21T02:23:10.833Z,7.93
2019-02-21T02:25:42.288Z,10.67
2019-02-21T02:28:11.578Z,10.47
2019-02-21T02:30:41.058Z,8.57
2019-02-21T02:33:10.473Z,10.67
2019-02-21T02:35:40.025Z,9.90
2019-02-21T02:38:09.928Z,8.27
2019-02-21T02:40:39.423Z,9.00
2019-02-21T02:43:08.975Z,8.10
2019-02-21T02:45:38.420Z,11.70
2019-02-21T02:48:07.978Z,8.83
2019-02-21T02:50:37.429Z,10.60
2019-02-21T02:53:06.918Z,10.03
2019-02-21T02:55:36.319Z,8.97
2019-02-21T02:58:06.508Z,11.23
2019-02-21T03:00:36.096Z,8.83
2019-02-21T03:03:05.583Z,9.20
2019-02-21T03:05:35.042Z,8.80
2019-02-21T03:08:04.685Z,11.00
2019-02-21T03:10:37.266Z,9.23
2019-02-21T03:13:07.578Z,9.60
2019-02-21T03:15:36.938Z,8.53
2019-02-21T03:18:06.304Z,10.10
2019-02-21T03:20:35.819Z,10.00
2019-02-21T03:23:05.489Z,8.20
2019-02-21T03:25:34.843Z,8.50
2019-02-21T03:28:04.414Z,11.53
2019-02-21T03:30:33.852Z,11.60
2019-02-21T03:33:03.342Z,9.17
2019-02-21T03:35:33.268Z,8.30
2019-02-21T03:38:02.824Z,8.53
2019-02-21T03:40:32.214Z,11.40
2019-02-21T03:43:01.548Z,10.00
2019-02-21T03:45:31.438Z,9.20
2019-02-21T03:48:00.747Z,10.13
2019-02-21T03:50:30.259Z,12.73
2019-02-21T03:52:59.812Z,10.40
2019-02-21T03:55:29.297Z,9.30
2019-02-21T03:57:58.805Z,12.97
2019-02-21T04:00:28.342Z,10.13
2019-02-21T04:02:57.626Z,10.00
2019-02-21T04:05:27.065Z,12.10
2019-02-21T04:07:56.397Z,11.07
2019-02-21T04:10:25.837Z,10.90
2019-02-21T04:12:55.133Z,10.73
2019-02-21T04:15:25.518Z,9.97
2019-02-21T04:17:54.960Z,9.67
2019-02-21T04:20:24.653Z,10.50
2019-02-21T04:22:54.075Z,8.83
2019-02-21T04:25:23.499Z,9.40
2019-02-21T04:27:52.784Z,8.90
2019-02-21T04:30:22.046Z,10.57
2019-02-21T04:32:51.350Z,9.40
2019-02-21T04:35:20.675Z,8.60
2019-02-21T04:37:50.010Z,11.10
2019-02-21T04:40:19.401Z,11.20
2019-02-21T04:42:48.805Z,10.67
2019-02-21T04:45:18.174Z,9.40
2019-02-21T04:47:47.590Z,11.57
2019-02-21T04:50:16.863Z,8.43
2019-02-21T04:52:46.160Z,10.03
2019-02-21T04:55:15.565Z,12.60
2019-02-21T04:57:45.025Z,10.67
2019-02-21T05:00:14.477Z,9.13
2019-02-21T05:02:43.848Z,10.20
2019-02-21T05:05:13.375Z,10.90
2019-02-21T05:07:42.971Z,10.93
2019-02-21T05:10:12.401Z,9.30
2019-02-21T05:12:41.909Z,9.87
2019-02-21T05:15:13.932Z,13.20
2019-02-21T05:17:42.532Z,10.20
2019-02-21T05:20:11.875Z,12.07
2019-02-21T05:22:41.344Z,8.90
2019-02-21T05:25:10.865Z,10.20
2019-02-21T05:27:49.635Z,10.60
2019-02-21T05:30:22.444Z,9.20
2019-02-21T05:33:16.817Z,9.87
2019-02-21T05:36:03.904Z,12.60
2019-02-21T05:38:58.228Z,10.37
2019-02-21T05:41:51.184Z,10.93
2019-02-21T05:44:38.784Z,12.77
2019-02-21T05:47:32.803Z,9.17
2019-02-21T05:50:30.175Z,10.43
2019-02-21T05:53:10.806Z,11.83
2019-02-21T05:55:49.047Z,15.03
2019-02-21T05:58:35.947Z,10.60
2019-02-21T06:01:11.401Z,11.50
2019-02-21T06:04:08.382Z,11.00
2019-02-21T06:06:50.766Z,14.00
2019-02-21T06:09:28.897Z,13.33
2019-02-21T06:12:17.219Z,11.20
2019-02-21T06:14:56.219Z,11.57
2019-02-21T06:17:50.485Z,13.97
2019-02-21T06:20:48.054Z,14.73
2019-02-21T06:23:39.510Z,10.07
2019-02-21T06:26:39.451Z,10.90
2019-02-21T06:29:15.284Z,12.47
2019-02-21T06:31:44.862Z,11.00
2019-02-21T06:34:14.181Z,11.67
2019-02-21T06:36:43.741Z,14.07
2019-02-21T06:39:13.426Z,12.50
2019-02-21T06:41:42.967Z,17.70
2019-02-21T06:44:12.618Z,13.00
2019-02-21T06:46:42.071Z,11.97
2019-02-21T06:49:11.398Z,13.07
2019-02-21T06:51:40.687Z,13.03
2019-02-21T06:54:10.010Z,11.07
2019-02-21T06:56:39.492Z,13.60
2019-02-21T06:59:08.784Z,12.70
2019-02-21T07:01:38.033Z,12.50
2019-02-21T07:04:07.354Z,10.47
2019-02-21T07:06:39.166Z,15.47
2019-02-21T07:09:07.669Z,13.73
2019-02-21T07:11:37.166Z,15.70
2019-02-21T07:14:06.645Z,12.60
2019-02-21T07:16:37.346Z,13.70
2019-02-21T07:19:07.170Z,12.90
2019-02-21T07:21:36.690Z,12.87
2019-02-21T07:24:06.421Z,13.03
2019-02-21T07:26:35.808Z,14.93
2019-02-21T07:29:05.154Z,14.60
2019-02-21T07:31:34.682Z,15.73
2019-02-21T07:34:04.180Z,14.30
2019-02-21T07:36:33.851Z,14.47
2019-02-21T07:39:16.522Z,16.67
2019-02-21T07:41:35.496Z,14.10
2019-02-21T07:44:12.018Z,15.13
2019-02-21T07:46:35.985Z,15.03
2019-02-21T07:49:05.518Z,14.97
2019-02-21T07:51:36.024Z,15.90
2019-02-21T07:54:05.737Z,18.40
2019-02-21T07:56:42.102Z,17.53
2019-02-21T07:59:07.501Z,17.17
2019-02-21T08:01:36.889Z,17.73
2019-02-21T08:04:06.166Z,13.37
2019-02-21T08:06:35.470Z,17.80
2019-02-21T08:09:05.836Z,15.00
2019-02-21T08:11:35.082Z,16.00
2019-02-21T08:14:04.409Z,17.60
2019-02-21T08:16:33.754Z,17.43
2019-02-21T08:19:03.207Z,18.13
2019-02-21T08:21:32.624Z,19.63
2019-02-21T08:24:02.093Z,19.17
2019-02-21T08:26:31.573Z,16.63
2019-02-21T08:29:01.048Z,19.00
2019-02-21T08:31:30.284Z,22.43
2019-02-21T08:34:05.768Z,18.43
2019-02-21T08:36:35.030Z,20.83
2019-02-21T08:39:06.026Z,18.27
2019-02-21T08:41:35.506Z,20.53
2019-02-21T08:44:04.818Z,22.40
2019-02-21T08:46:34.203Z,18.23
2019-02-21T08:49:03.639Z,21.87
2019-02-21T08:51:32.935Z,16.47
2019-02-21T08:54:02.238Z,18.37
2019-02-21T08:56:31.965Z,17.50
2019-02-21T08:59:01.431Z,20.93
2019-02-21T09:01:30.786Z,17.73
2019-02-21T09:04:09.955Z,18.50
2019-02-21T09:06:31.214Z,20.53
2019-02-21T09:09:00.663Z,21.17
2019-02-21T09:11:30.055Z,17.23
2019-02-21T09:13:59.522Z,20.40
2019-02-21T09:16:29.000Z,22.33
2019-02-21T09:18:58.292Z,20.67
2019-02-21T09:21:27.661Z,21.60
2019-02-21T09:23:57.099Z,20.23
2019-02-21T09:26:26.485Z,24.50
2019-02-21T09:28:58.403Z,21.93
2019-02-21T09:31:26.810Z,21.37
2019-02-21T09:33:56.181Z,21.10
2019-02-21T09:36:25.690Z,22.27
2019-02-21T09:38:55.357Z,19.40
2019-02-21T09:41:24.615Z,22.53
2019-02-21T09:43:53.959Z,19.57
2019-02-21T09:46:23.243Z,21.30
2019-02-21T09:48:52.593Z,22.07
2019-02-21T09:51:22.115Z,19.23
2019-02-21T09:53:51.606Z,22.00
2019-02-21T09:56:29.969Z,29.20
2019-02-21T09:58:52.272Z,21.70
2019-02-21T10:01:21.793Z,21.97
2019-02-21T10:03:51.191Z,20.10
2019-02-21T10:06:20.428Z,20.40
2019-02-21T10:08:49.842Z,22.70
2019-02-21T10:11:19.158Z,18.27
2019-02-21T10:13:48.662Z,22.23
2019-02-21T10:16:18.514Z,18.10
2019-02-21T10:18:47.793Z,20.27
2019-02-21T10:21:17.218Z,20.10
2019-02-21T10:23:46.784Z,24.83
2019-02-21T10:26:16.153Z,22.10
2019-02-21T10:28:45.469Z,23.00
2019-02-21T10:31:15.514Z,18.97
2019-02-21T10:33:47.246Z,22.13
2019-02-21T10:36:16.034Z,23.47
2019-02-21T10:38:45.415Z,20.80
2019-02-21T10:41:14.848Z,19.97
2019-02-21T10:43:44.367Z,22.33
2019-02-21T10:46:13.891Z,23.73
2019-02-21T10:48:43.372Z,20.53
2019-02-21T10:51:13.238Z,22.97
2019-02-21T10:53:42.601Z,24.27
2019-02-21T10:56:12.114Z,25.00
2019-02-21T10:58:41.836Z,21.60
2019-02-21T11:01:11.156Z,22.10
2019-02-21T11:03:40.622Z,24.20
2019-02-21T11:06:09.931Z,22.57
2019-02-21T11:08:39.460Z,21.60
2019-02-21T11:11:09.061Z,20.80
2019-02-21T11:13:38.372Z,20.43
2019-02-21T11:16:07.698Z,23.23
2019-02-21T11:18:36.986Z,21.23
2019-02-21T11:21:06.349Z,23.07
2019-02-21T11:23:35.845Z,28.17
2019-02-21T11:26:05.373Z,23.07
2019-02-21T11:28:34.677Z,22.33
2019-02-21T11:31:04.145Z,22.40
2019-02-21T11:33:34.782Z,24.03
2019-02-21T11:36:04.253Z,20.53
2019-02-21T11:38:33.707Z,21.93
2019-02-21T11:41:03.197Z,22.93
2019-02-21T11:43:32.715Z,20.37
2019-02-21T11:46:07.802Z,20.27
2019-02-21T11:48:37.255Z,21.30
2019-02-21T11:51:07.471Z,25.03
2019-02-21T11:53:38.164Z,20.70
2019-02-21T11:56:07.790Z,21.30
2019-02-21T11:58:37.298Z,20.20
2019-02-21T12:01:09.173Z,21.30
2019-02-21T12:03:38.561Z,23.60
2019-02-21T12:06:08.218Z,18.93
2019-02-21T12:08:37.541Z,20.17
2019-02-21T12:11:07.677Z,20.57
2019-02-21T12:13:37.203Z,22.37
2019-02-21T12:16:06.723Z,21.90
2019-02-21T12:18:36.211Z,22.80
2019-02-21T12:21:05.729Z,19.77
2019-02-21T12:23:35.963Z,21.40
2019-02-21T12:26:05.405Z,22.33
2019-02-21T12:28:34.780Z,18.13
2019-02-21T12:31:04.173Z,21.03
2019-02-21T12:33:33.481Z,18.23
2019-02-21T12:36:03.851Z,19.13
2019-02-21T12:38:33.314Z,20.47
2019-02-21T12:41:02.813Z,19.10
2019-02-21T12:43:32.259Z,21.77
2019-02-21T12:46:01.792Z,17.03
2019-02-21T12:48:31.254Z,18.73
2019-02-21T12:51:00.641Z,16.37
2019-02-21T12:53:30.109Z,22.57
2019-02-21T12:55:59.616Z,20.60
2019-02-21T12:58:29.135Z,18.50
2019-02-21T13:00:58.596Z,20.17
2019-02-21T13:03:27.854Z,19.93
2019-02-21T13:05:57.166Z,18.33
2019-02-21T13:08:26.534Z,16.87
2019-02-21T13:10:56.064Z,17.10
2019-02-21T13:13:25.547Z,14.77
2019-02-21T13:15:55.068Z,14.23
2019-02-21T13:18:24.541Z,16.70
2019-02-21T13:20:54.065Z,21.13
2019-02-21T13:23:23.550Z,17.20
2019-02-21T13:25:53.089Z,17.10
2019-02-21T13:28:23.955Z,15.03
2019-02-21T13:30:53.327Z,15.67
2019-02-21T13:33:22.845Z,17.83
2019-02-21T13:35:53.292Z,20.80
2019-02-21T13:38:22.799Z,18.80
2019-02-21T13:40:52.167Z,15.47
2019-02-21T13:43:21.614Z,14.20
2019-02-21T13:45:50.877Z,11.77
2019-02-21T13:48:20.250Z,17.43
2019-02-21T13:50:49.772Z,14.63
2019-02-21T13:53:19.271Z,14.10
2019-02-21T13:55:50.934Z,20.37
2019-02-21T13:58:19.963Z,16.93
2019-02-21T14:00:49.992Z,17.90
2019-02-21T14:03:19.360Z,13.10
2019-02-21T14:05:48.801Z,12.83
2019-02-21T14:08:19.354Z,13.47
2019-02-21T14:10:48.859Z,12.53
2019-02-21T14:13:18.847Z,14.27
2019-02-21T14:15:48.279Z,13.60
2019-02-21T14:18:17.729Z,16.93
2019-02-21T14:20:47.101Z,14.47
2019-02-21T14:23:16.348Z,12.87
2019-02-21T14:25:45.671Z,13.30
2019-02-21T14:28:15.160Z,12.87
2019-02-21T14:30:44.461Z,13.10
2019-02-21T14:33:13.820Z,14.60
2019-02-21T14:35:43.336Z,22.97
2019-02-21T14:38:13.548Z,13.33
2019-02-21T14:40:42.869Z,13.87
2019-02-21T14:43:16.079Z,16.33
2019-02-21T14:45:43.119Z,15.93
2019-02-21T14:48:12.582Z,13.20
2019-02-21T14:50:42.475Z,14.20
2019-02-21T14:53:11.825Z,12.67
2019-02-21T14:55:41.203Z,11.90
2019-02-21T14:58:10.746Z,13.17
2019-02-21T15:00:40.419Z,14.60
2019-02-21T15:03:21.229Z,13.77
2019-02-21T15:05:41.035Z,12.23
2019-02-21T15:08:10.581Z,11.93
2019-02-21T15:10:40.052Z,15.73
2019-02-21T15:13:09.543Z,13.37
2019-02-21T15:15:39.028Z,14.20
2019-02-21T15:18:11.105Z,11.87
2019-02-21T15:20:39.511Z,12.90
2019-02-21T15:23:08.851Z,11.43
2019-02-21T15:25:38.293Z,13.33
2019-02-21T15:28:07.579Z,13.20
2019-02-21T15:30:36.885Z,16.50
2019-02-21T15:33:06.203Z,12.30
2019-02-21T15:35:35.482Z,12.70
2019-02-21T15:38:04.729Z,12.40
2019-02-21T15:40:34.139Z,14.40
2019-02-21T15:43:05.385Z,12.23
2019-02-21T15:45:34.575Z,9.27
2019-02-21T15:48:04.091Z,11.07
2019-02-21T15:50:34.376Z,12.20
2019-02-21T15:53:03.893Z,11.90
2019-02-21T15:55:33.171Z,13.40
2019-02-21T15:58:04.267Z,12.83
2019-02-21T16:00:33.673Z,13.53
2019-02-21T16:03:03.146Z,17.00
2019-02-21T16:05:32.622Z,11.80
2019-02-21T16:08:01.886Z,10.67
2019-02-21T16:10:31.697Z,10.30
2019-02-21T16:13:04.223Z,11.20
2019-02-21T16:15:32.332Z,12.50
2019-02-21T16:18:01.809Z,10.53
2019-02-21T16:20:31.351Z,14.30
2019-02-21T16:23:00.868Z,9.90
2019-02-21T16:25:30.407Z,13.40
2019-02-21T16:27:59.802Z,10.93
2019-02-21T16:30:29.155Z,12.53
2019-02-21T16:32:58.640Z,10.77
2019-02-21T16:35:27.900Z,11.20
2019-02-21T16:37:57.276Z,14.20
2019-02-21T16:40:26.732Z,11.20
2019-02-21T16:42:56.064Z,9.27
2019-02-21T16:45:25.529Z,11.97
2019-02-21T16:47:54.897Z,10.87
2019-02-21T16:50:29.846Z,13.80
2019-02-21T16:52:55.309Z,10.90
2019-02-21T16:55:24.864Z,10.80
2019-02-21T16:57:54.335Z,12.10
2019-02-21T17:00:23.958Z,11.20
2019-02-21T17:02:53.351Z,12.10
2019-02-21T17:05:22.900Z,12.93
2019-02-21T17:07:52.326Z,14.10
2019-02-21T17:10:21.853Z,10.10
2019-02-21T17:12:51.338Z,10.50
2019-02-21T17:15:20.799Z,10.30
2019-02-21T17:17:50.122Z,12.00
2019-02-21T17:20:20.264Z,12.43
2019-02-21T17:22:49.748Z,10.83
2019-02-21T17:25:19.300Z,13.37
2019-02-21T17:27:49.157Z,11.63
2019-02-21T17:30:18.611Z,12.10
2019-02-21T17:32:48.034Z,11.37
2019-02-21T17:35:17.468Z,12.00
2019-02-21T17:37:46.775Z,12.33
2019-02-21T17:40:17.984Z,15.10
2019-02-21T17:42:47.620Z,14.83
2019-02-21T17:45:16.922Z,14.70
2019-02-21T17:47:46.245Z,11.63
2019-02-21T17:50:15.691Z,18.20
2019-02-21T17:52:46.231Z,12.13
2019-02-21T17:55:15.603Z,13.97
2019-02-21T17:57:45.145Z,12.90
2019-02-21T18:00:17.968Z,15.23
2019-02-21T18:02:47.348Z,17.30
2019-02-21T18:05:16.720Z,15.50
2019-02-21T18:07:46.138Z,13.50
2019-02-21T18:10:16.420Z,14.37
2019-02-21T18:12:45.858Z,14.87
2019-02-21T18:15:15.381Z,14.33
2019-02-21T18:17:44.765Z,12.30
2019-02-21T18:20:14.074Z,12.93
2019-02-21T18:22:43.352Z,14.20
2019-02-21T18:25:15.936Z,15.90
2019-02-21T18:27:45.204Z,13.37
2019-02-21T18:30:15.188Z,15.43
2019-02-21T18:32:44.493Z,14.93
2019-02-21T18:35:13.820Z,18.17
2019-02-21T18:37:47.436Z,14.17
2019-02-21T18:40:18.471Z,16.07
2019-02-21T18:42:46.899Z,17.90
2019-02-21T18:45:16.383Z,14.50
2019-02-21T18:47:45.944Z,16.33
2019-02-21T18:50:15.391Z,17.10
2019-02-21T18:52:45.692Z,18.83
2019-02-21T18:55:16.061Z,15.83
2019-02-21T18:57:45.518Z,17.50
2019-02-21T19:00:17.799Z,20.20
2019-02-21T19:02:47.257Z,19.10
2019-02-21T19:05:16.697Z,19.73
2019-02-21T19:07:46.192Z,20.17
2019-02-21T19:10:16.114Z,24.60
2019-02-21T19:12:45.584Z,19.17
2019-02-21T19:15:14.986Z,21.00
2019-02-21T19:17:44.926Z,22.00
2019-02-21T19:20:14.518Z,20.20
2019-02-21T19:22:43.864Z,20.43
2019-02-21T19:25:13.376Z,20.07
2019-02-21T19:27:42.830Z,20.87
2019-02-21T19:30:15.869Z,20.57
2019-02-21T19:32:45.379Z,20.63
2019-02-21T19:35:14.826Z,21.60
2019-02-21T19:37:44.213Z,22.70
2019-02-21T19:40:13.700Z,21.27
2019-02-21T19:42:44.210Z,22.67
2019-02-21T19:45:13.720Z,20.70
2019-02-21T19:47:43.199Z,20.47
2019-02-21T19:50:12.731Z,20.00
2019-02-21T19:52:42.280Z,21.80
2019-02-21T19:55:11.704Z,22.50
2019-02-21T19:57:41.237Z,23.73
2019-02-21T20:00:13.293Z,25.63
2019-02-21T20:02:42.615Z,20.90
2019-02-21T20:05:11.907Z,22.43
2019-02-21T20:07:41.306Z,23.93
2019-02-21T20:10:10.862Z,20.83
2019-02-21T20:12:40.295Z,22.47
2019-02-21T20:15:09.857Z,23.20
2019-02-21T20:17:39.302Z,21.53
2019-02-21T20:20:10.284Z,20.90
2019-02-21T20:22:39.742Z,22.30
2019-02-21T20:25:09.258Z,24.10
2019-02-21T20:27:39.492Z,26.13
2019-02-21T20:30:11.154Z,24.83
2019-02-21T20:32:40.624Z,23.87
2019-02-21T20:35:10.131Z,23.90
2019-02-21T20:37:39.416Z,24.00
2019-02-21T20:40:08.914Z,23.80
2019-02-21T20:42:38.220Z,26.80
2019-02-21T20:45:08.146Z,28.43
2019-02-21T20:47:37.607Z,26.20
2019-02-21T20:50:07.382Z,24.93
2019-02-21T20:52:36.939Z,23.07
2019-02-21T20:55:06.424Z,27.97
2019-02-21T20:57:35.861Z,23.50
2019-02-21T21:00:05.603Z,23.30
2019-02-21T21:02:38.221Z,25.43
2019-02-21T21:05:07.713Z,25.50
2019-02-21T21:07:38.242Z,22.30
2019-02-21T21:10:09.338Z,24.60
2019-02-21T21:12:38.786Z,25.40
2019-02-21T21:15:09.722Z,22.13
2019-02-21T21:17:39.284Z,21.83
2019-02-21T21:20:16.502Z,23.20
2019-02-21T21:22:41.847Z,23.97
2019-02-21T21:25:13.776Z,23.57
2019-02-21T21:27:43.244Z,21.77
2019-02-21T21:30:13.850Z,24.20
2019-02-21T21:32:43.350Z,24.37
2019-02-21T21:35:12.799Z,23.13
2019-02-21T21:37:42.320Z,23.90
2019-02-21T21:40:13.105Z,22.27
2019-02-21T21:42:43.293Z,23.50
2019-02-21T21:45:14.677Z,23.23
2019-02-21T21:47:43.955Z,22.67
2019-02-21T21:50:14.291Z,22.87
2019-02-21T21:52:43.649Z,22.17
2019-02-21T21:55:13.169Z,23.77
2019-02-21T21:57:42.577Z,27.10
2019-02-21T22:00:14.685Z,25.23
2019-02-21T22:02:44.114Z,23.10
2019-02-21T22:05:13.570Z,23.73
2019-02-21T22:07:42.907Z,23.57
2019-02-21T22:10:13.690Z,23.73
2019-02-21T22:12:43.205Z,28.60
2019-02-21T22:15:13.980Z,24.03
2019-02-21T22:17:43.338Z,22.87
2019-02-21T22:20:12.682Z,23.30
2019-02-21T22:22:42.242Z,21.87
2019-02-21T22:25:11.952Z,25.63
2019-02-21T22:27:41.405Z,22.00
2019-02-21T22:30:12.737Z,25.37
2019-02-21T22:32:41.990Z,23.13
2019-02-21T22:35:11.248Z,22.40
2019-02-21T22:37:42.515Z,28.20
2019-02-21T22:40:12.905Z,23.63
2019-02-21T22:42:42.316Z,25.50
2019-02-21T22:45:11.599Z,24.60
2019-02-21T22:47:40.955Z,25.80
2019-02-21T22:50:12.542Z,22.50
2019-02-21T22:52:42.026Z,23.47
2019-02-21T22:55:11.574Z,25.07
2019-02-21T22:57:41.061Z,22.63
2019-02-21T23:00:59.882Z,24.70
2019-02-21T23:03:34.577Z,25.00
2019-02-21T23:06:19.889Z,23.30
2019-02-21T23:08:52.710Z,26.10
2019-02-21T23:11:22.405Z,25.53
2019-02-21T23:13:52.043Z,25.90
2019-02-21T23:16:21.469Z,28.57
2019-02-21T23:18:50.754Z,27.17
2019-02-21T23:21:20.006Z,24.33
2019-02-21T23:23:49.308Z,28.63
2019-02-21T23:26:19.810Z,28.40
2019-02-21T23:28:49.184Z,31.40
2019-02-21T23:31:37.599Z,24.43
2019-02-21T23:34:09.072Z,25.80
2019-02-21T23:36:38.327Z,24.07
2019-02-21T23:39:07.907Z,31.13
2019-02-21T23:41:37.232Z,26.37
2019-02-21T23:44:07.035Z,24.73
2019-02-21T23:46:36.406Z,28.23
2019-02-21T23:49:05.763Z,29.27
2019-02-21T23:51:35.233Z,26.77
2019-02-21T23:54:04.722Z,27.13
2019-02-21T23:56:34.160Z,28.30
2019-02-21T23:59:03.555Z,25.77
